sensor_id;sensor_type;location;lat;lon;timestamp;P1;durP1;ratioP1;P2;durP2;ratioP2
9294;SDS011;4686;44.496;11.324;2023-03-01T00:00:07;30.93;;;23.50;;
9294;SDS011;4686;44.496;11.324;2023-03-01T00:02:35;33.27;;;23.37;;
9294;SDS011;4686;44.496;11.324;2023-03-01T00:05:03;30.43;;;23.47;;
9294;SDS011;4686;44.496;11.324;2023-03-01T00:07:30;30.03;;;22.30;;
9294;SDS011;4686;44.496;11.324;2023-03-01T00:09:57;34.20;;;24.40;;
9294;SDS011;4686;44.496;11.324;2023-03-01T00:12:26;35.90;;;22.63;;
9294;SDS011;4686;44.496;11.324;2023-03-01T00:14:53;32.00;;;23.47;;
9294;SDS011;4686;44.496;11.324;2023-03-01T00:17:20;31.10;;;23.53;;
9294;SDS011;4686;44.496;11.324;2023-03-01T00:19:48;30.27;;;22.10;;
9294;SDS011;4686;44.496;11.324;2023-03-01T00:22:15;31.97;;;23.07;;
9294;SDS011;4686;44.496;11.324;2023-03-01T00:24:42;29.13;;;21.97;;
9294;SDS011;4686;44.496;11.324;2023-03-01T00:27:10;25.97;;;21.60;;
9294;SDS011;4686;44.496;11.324;2023-03-01T00:29:38;30.87;;;22.10;;
9294;SDS011;4686;44.496;11.324;2023-03-01T00:32:05;28.80;;;21.93;;
9294;SDS011;4686;44.496;11.324;2023-03-01T00:34:33;25.13;;;22.40;;
9294;SDS011;4686;44.496;11.324;2023-03-01T00:37:00;29.97;;;23.20;;
9294;SDS011;4686;44.496;11.324;2023-03-01T00:39:30;37.47;;;23.67;;
9294;SDS011;4686;44.496;11.324;2023-03-01T00:42:00;32.27;;;22.63;;
9294;SDS011;4686;44.496;11.324;2023-03-01T00:44:27;37.03;;;22.77;;
9294;SDS011;4686;44.496;11.324;2023-03-01T00:46:55;30.37;;;22.67;;
9294;SDS011;4686;44.496;11.324;2023-03-01T00:49:23;28.40;;;22.30;;
9294;SDS011;4686;44.496;11.324;2023-03-01T00:51:52;28.93;;;23.70;;
9294;SDS011;4686;44.496;11.324;2023-03-01T00:54:20;26.00;;;21.60;;
9294;SDS011;4686;44.496;11.324;2023-03-01T00:56:47;29.33;;;22.37;;
9294;SDS011;4686;44.496;11.324;2023-03-01T00:59:14;32.07;;;22.13;;
9294;SDS011;4686;44.496;11.324;2023-03-01T01:01:41;31.07;;;20.33;;
9294;SDS011;4686;44.496;11.324;2023-03-01T01:04:11;31.27;;;24.03;;
9294;SDS011;4686;44.496;11.324;2023-03-01T01:06:39;35.27;;;23.67;;
9294;SDS011;4686;44.496;11.324;2023-03-01T01:09:07;36.83;;;22.87;;
9294;SDS011;4686;44.496;11.324;2023-03-01T01:11:42;34.63;;;23.00;;
9294;SDS011;4686;44.496;11.324;2023-03-01T01:14:09;34.00;;;23.30;;
9294;SDS011;4686;44.496;11.324;2023-03-01T01:16:37;27.83;;;22.50;;
9294;SDS011;4686;44.496;11.324;2023-03-01T01:19:04;28.17;;;22.30;;
9294;SDS011;4686;44.496;11.324;2023-03-01T01:21:33;28.80;;;21.47;;
9294;SDS011;4686;44.496;11.324;2023-03-01T01:24:02;30.97;;;23.17;;
9294;SDS011;4686;44.496;11.324;2023-03-01T01:26:30;32.10;;;22.40;;
9294;SDS011;4686;44.496;11.324;2023-03-01T01:28:58;27.37;;;21.83;;
9294;SDS011;4686;44.496;11.324;2023-03-01T01:31:26;27.63;;;21.33;;
9294;SDS011;4686;44.496;11.324;2023-03-01T01:33:54;28.90;;;22.40;;
9294;SDS011;4686;44.496;11.324;2023-03-01T01:36:22;28.90;;;20.57;;
9294;SDS011;4686;44.496;11.324;2023-03-01T01:38:50;31.63;;;21.97;;
9294;SDS011;4686;44.496;11.324;2023-03-01T01:41:18;24.90;;;21.10;;
9294;SDS011;4686;44.496;11.324;2023-03-01T01:43:46;28.53;;;21.73;;
9294;SDS011;4686;44.496;11.324;2023-03-01T01:46:20;28.80;;;22.90;;
9294;SDS011;4686;44.496;11.324;2023-03-01T01:48:50;29.30;;;22.03;;
9294;SDS011;4686;44.496;11.324;2023-03-01T01:51:21;29.97;;;22.73;;
9294;SDS011;4686;44.496;11.324;2023-03-01T01:53:52;31.77;;;23.00;;
9294;SDS011;4686;44.496;11.324;2023-03-01T01:56:22;33.93;;;22.80;;
9294;SDS011;4686;44.496;11.324;2023-03-01T01:58:50;29.43;;;22.83;;
9294;SDS011;4686;44.496;11.324;2023-03-01T02:01:18;30.77;;;22.63;;
9294;SDS011;4686;44.496;11.324;2023-03-01T02:03:45;29.20;;;22.70;;
9294;SDS011;4686;44.496;11.324;2023-03-01T02:06:15;29.23;;;23.43;;
9294;SDS011;4686;44.496;11.324;2023-03-01T02:08:44;30.10;;;22.90;;
9294;SDS011;4686;44.496;11.324;2023-03-01T02:11:14;31.73;;;23.43;;
9294;SDS011;4686;44.496;11.324;2023-03-01T02:13:41;32.03;;;23.20;;
9294;SDS011;4686;44.496;11.324;2023-03-01T02:16:10;33.00;;;24.70;;
9294;SDS011;4686;44.496;11.324;2023-03-01T02:18:37;28.17;;;22.50;;
9294;SDS011;4686;44.496;11.324;2023-03-01T02:21:08;29.13;;;23.10;;
9294;SDS011;4686;44.496;11.324;2023-03-01T02:23:37;28.50;;;22.37;;
9294;SDS011;4686;44.496;11.324;2023-03-01T02:26:06;26.00;;;22.50;;
9294;SDS011;4686;44.496;11.324;2023-03-01T02:28:37;29.90;;;22.67;;
9294;SDS011;4686;44.496;11.324;2023-03-01T02:31:06;31.47;;;21.90;;
9294;SDS011;4686;44.496;11.324;2023-03-01T02:33:51;34.63;;;22.87;;
9294;SDS011;4686;44.496;11.324;2023-03-01T02:36:20;28.20;;;22.70;;
9294;SDS011;4686;44.496;11.324;2023-03-01T02:38:48;29.63;;;24.17;;
9294;SDS011;4686;44.496;11.324;2023-03-01T02:41:17;35.73;;;22.80;;
9294;SDS011;4686;44.496;11.324;2023-03-01T02:43:47;27.47;;;23.57;;
9294;SDS011;4686;44.496;11.324;2023-03-01T02:46:15;27.00;;;21.73;;
9294;SDS011;4686;44.496;11.324;2023-03-01T02:48:43;27.50;;;22.70;;
9294;SDS011;4686;44.496;11.324;2023-03-01T02:51:14;27.70;;;22.90;;
9294;SDS011;4686;44.496;11.324;2023-03-01T02:53:48;32.37;;;21.67;;
9294;SDS011;4686;44.496;11.324;2023-03-01T02:56:19;28.50;;;21.30;;
9294;SDS011;4686;44.496;11.324;2023-03-01T02:58:48;29.77;;;22.57;;
9294;SDS011;4686;44.496;11.324;2023-03-01T03:01:16;27.90;;;22.30;;
9294;SDS011;4686;44.496;11.324;2023-03-01T03:03:44;31.60;;;22.13;;
9294;SDS011;4686;44.496;11.324;2023-03-01T03:06:11;29.30;;;21.90;;
9294;SDS011;4686;44.496;11.324;2023-03-01T03:08:39;33.90;;;23.33;;
9294;SDS011;4686;44.496;11.324;2023-03-01T03:11:06;27.50;;;23.03;;
9294;SDS011;4686;44.496;11.324;2023-03-01T03:13:33;30.50;;;22.67;;
9294;SDS011;4686;44.496;11.324;2023-03-01T03:16:02;31.77;;;22.80;;
9294;SDS011;4686;44.496;11.324;2023-03-01T03:18:29;29.97;;;22.40;;
9294;SDS011;4686;44.496;11.324;2023-03-01T03:20:57;27.63;;;21.27;;
9294;SDS011;4686;44.496;11.324;2023-03-01T03:23:24;28.57;;;22.97;;
9294;SDS011;4686;44.496;11.324;2023-03-01T03:25:51;30.03;;;22.80;;
9294;SDS011;4686;44.496;11.324;2023-03-01T03:28:18;30.10;;;24.23;;
9294;SDS011;4686;44.496;11.324;2023-03-01T03:30:46;34.33;;;24.40;;
9294;SDS011;4686;44.496;11.324;2023-03-01T03:33:16;27.77;;;23.03;;
9294;SDS011;4686;44.496;11.324;2023-03-01T03:35:43;26.50;;;22.47;;
9294;SDS011;4686;44.496;11.324;2023-03-01T03:38:11;30.63;;;22.87;;
9294;SDS011;4686;44.496;11.324;2023-03-01T03:40:43;27.27;;;22.43;;
9294;SDS011;4686;44.496;11.324;2023-03-01T03:43:11;29.20;;;23.13;;
9294;SDS011;4686;44.496;11.324;2023-03-01T03:45:38;29.47;;;23.30;;
9294;SDS011;4686;44.496;11.324;2023-03-01T03:48:06;31.67;;;23.93;;
9294;SDS011;4686;44.496;11.324;2023-03-01T03:50:35;36.00;;;23.60;;
9294;SDS011;4686;44.496;11.324;2023-03-01T03:53:04;31.93;;;23.70;;
9294;SDS011;4686;44.496;11.324;2023-03-01T03:55:32;27.90;;;22.10;;
9294;SDS011;4686;44.496;11.324;2023-03-01T03:58:00;34.43;;;22.30;;
9294;SDS011;4686;44.496;11.324;2023-03-01T04:00:32;32.83;;;24.80;;
9294;SDS011;4686;44.496;11.324;2023-03-01T04:02:59;29.50;;;23.43;;
9294;SDS011;4686;44.496;11.324;2023-03-01T04:05:26;29.83;;;22.23;;
9294;SDS011;4686;44.496;11.324;2023-03-01T04:07:56;28.37;;;24.17;;
9294;SDS011;4686;44.496;11.324;2023-03-01T04:10:32;30.17;;;24.20;;
9294;SDS011;4686;44.496;11.324;2023-03-01T04:13:00;34.57;;;23.50;;
9294;SDS011;4686;44.496;11.324;2023-03-01T04:15:27;34.40;;;25.17;;
9294;SDS011;4686;44.496;11.324;2023-03-01T04:17:54;31.47;;;24.20;;
9294;SDS011;4686;44.496;11.324;2023-03-01T04:20:23;28.77;;;22.40;;
9294;SDS011;4686;44.496;11.324;2023-03-01T04:22:50;30.13;;;22.97;;
9294;SDS011;4686;44.496;11.324;2023-03-01T04:25:19;31.30;;;23.60;;
9294;SDS011;4686;44.496;11.324;2023-03-01T04:27:46;27.60;;;22.50;;
9294;SDS011;4686;44.496;11.324;2023-03-01T04:30:14;34.93;;;23.67;;
9294;SDS011;4686;44.496;11.324;2023-03-01T04:32:41;32.23;;;24.20;;
9294;SDS011;4686;44.496;11.324;2023-03-01T04:35:08;29.17;;;24.63;;
9294;SDS011;4686;44.496;11.324;2023-03-01T04:37:36;27.33;;;22.43;;
9294;SDS011;4686;44.496;11.324;2023-03-01T04:40:03;26.60;;;21.90;;
9294;SDS011;4686;44.496;11.324;2023-03-01T04:42:43;29.60;;;23.50;;
9294;SDS011;4686;44.496;11.324;2023-03-01T04:45:10;27.40;;;22.47;;
9294;SDS011;4686;44.496;11.324;2023-03-01T04:47:39;28.73;;;21.90;;
9294;SDS011;4686;44.496;11.324;2023-03-01T04:50:08;34.60;;;24.23;;
9294;SDS011;4686;44.496;11.324;2023-03-01T04:52:36;24.37;;;21.30;;
9294;SDS011;4686;44.496;11.324;2023-03-01T04:55:03;29.03;;;22.37;;
9294;SDS011;4686;44.496;11.324;2023-03-01T04:57:31;27.63;;;23.20;;
9294;SDS011;4686;44.496;11.324;2023-03-01T04:59:59;33.87;;;24.67;;
9294;SDS011;4686;44.496;11.324;2023-03-01T05:02:44;28.13;;;23.63;;
9294;SDS011;4686;44.496;11.324;2023-03-01T05:05:12;31.13;;;24.33;;
9294;SDS011;4686;44.496;11.324;2023-03-01T05:07:39;31.20;;;23.30;;
9294;SDS011;4686;44.496;11.324;2023-03-01T05:10:07;36.00;;;24.60;;
9294;SDS011;4686;44.496;11.324;2023-03-01T05:12:34;28.80;;;23.63;;
9294;SDS011;4686;44.496;11.324;2023-03-01T05:15:04;35.13;;;24.33;;
9294;SDS011;4686;44.496;11.324;2023-03-01T05:17:32;34.60;;;23.90;;
9294;SDS011;4686;44.496;11.324;2023-03-01T05:19:59;30.70;;;24.13;;
9294;SDS011;4686;44.496;11.324;2023-03-01T05:22:29;29.63;;;25.13;;
9294;SDS011;4686;44.496;11.324;2023-03-01T05:24:56;30.83;;;24.87;;
9294;SDS011;4686;44.496;11.324;2023-03-01T05:27:23;34.73;;;25.40;;
9294;SDS011;4686;44.496;11.324;2023-03-01T05:29:50;31.87;;;24.40;;
9294;SDS011;4686;44.496;11.324;2023-03-01T05:32:19;29.27;;;23.33;;
9294;SDS011;4686;44.496;11.324;2023-03-01T05:34:46;30.93;;;24.23;;
9294;SDS011;4686;44.496;11.324;2023-03-01T05:37:14;37.93;;;25.83;;
9294;SDS011;4686;44.496;11.324;2023-03-01T05:39:41;33.60;;;25.03;;
9294;SDS011;4686;44.496;11.324;2023-03-01T05:42:09;38.90;;;26.63;;
9294;SDS011;4686;44.496;11.324;2023-03-01T05:44:37;35.10;;;26.00;;
9294;SDS011;4686;44.496;11.324;2023-03-01T05:47:04;35.53;;;25.87;;
9294;SDS011;4686;44.496;11.324;2023-03-01T05:49:33;37.53;;;26.10;;
9294;SDS011;4686;44.496;11.324;2023-03-01T05:52:00;33.20;;;25.13;;
9294;SDS011;4686;44.496;11.324;2023-03-01T05:54:27;35.77;;;26.50;;
9294;SDS011;4686;44.496;11.324;2023-03-01T05:56:55;37.80;;;26.90;;
9294;SDS011;4686;44.496;11.324;2023-03-01T05:59:22;36.03;;;26.87;;
9294;SDS011;4686;44.496;11.324;2023-03-01T06:01:49;31.80;;;26.60;;
9294;SDS011;4686;44.496;11.324;2023-03-01T06:04:16;37.23;;;25.80;;
9294;SDS011;4686;44.496;11.324;2023-03-01T06:06:45;34.77;;;26.77;;
9294;SDS011;4686;44.496;11.324;2023-03-01T06:09:12;35.23;;;25.60;;
9294;SDS011;4686;44.496;11.324;2023-03-01T06:11:39;34.27;;;24.73;;
9294;SDS011;4686;44.496;11.324;2023-03-01T06:14:07;32.93;;;26.13;;
9294;SDS011;4686;44.496;11.324;2023-03-01T06:16:35;38.70;;;27.43;;
9294;SDS011;4686;44.496;11.324;2023-03-01T06:19:02;34.30;;;26.03;;
9294;SDS011;4686;44.496;11.324;2023-03-01T06:21:30;36.20;;;25.70;;
9294;SDS011;4686;44.496;11.324;2023-03-01T06:23:59;36.40;;;27.63;;
9294;SDS011;4686;44.496;11.324;2023-03-01T06:26:26;32.27;;;26.30;;
9294;SDS011;4686;44.496;11.324;2023-03-01T06:28:53;33.33;;;26.03;;
9294;SDS011;4686;44.496;11.324;2023-03-01T06:31:21;35.00;;;27.57;;
9294;SDS011;4686;44.496;11.324;2023-03-01T06:33:48;35.63;;;28.57;;
9294;SDS011;4686;44.496;11.324;2023-03-01T06:36:15;34.40;;;26.80;;
9294;SDS011;4686;44.496;11.324;2023-03-01T06:38:46;35.60;;;26.73;;
9294;SDS011;4686;44.496;11.324;2023-03-01T06:41:14;36.90;;;27.33;;
9294;SDS011;4686;44.496;11.324;2023-03-01T06:43:42;39.60;;;27.77;;
9294;SDS011;4686;44.496;11.324;2023-03-01T06:46:09;36.90;;;27.27;;
9294;SDS011;4686;44.496;11.324;2023-03-01T06:48:36;42.80;;;28.43;;
9294;SDS011;4686;44.496;11.324;2023-03-01T06:51:03;38.40;;;28.07;;
9294;SDS011;4686;44.496;11.324;2023-03-01T06:53:31;38.73;;;27.73;;
9294;SDS011;4686;44.496;11.324;2023-03-01T06:55:58;40.33;;;28.73;;
9294;SDS011;4686;44.496;11.324;2023-03-01T06:58:27;38.70;;;28.20;;
9294;SDS011;4686;44.496;11.324;2023-03-01T07:00:54;37.70;;;28.93;;
9294;SDS011;4686;44.496;11.324;2023-03-01T07:03:21;31.10;;;25.97;;
9294;SDS011;4686;44.496;11.324;2023-03-01T07:05:49;35.47;;;28.80;;
9294;SDS011;4686;44.496;11.324;2023-03-01T07:08:17;38.57;;;28.30;;
9294;SDS011;4686;44.496;11.324;2023-03-01T07:10:45;34.13;;;27.63;;
9294;SDS011;4686;44.496;11.324;2023-03-01T07:13:12;34.80;;;25.17;;
9294;SDS011;4686;44.496;11.324;2023-03-01T07:15:41;36.80;;;27.73;;
9294;SDS011;4686;44.496;11.324;2023-03-01T07:18:08;36.37;;;26.10;;
9294;SDS011;4686;44.496;11.324;2023-03-01T07:20:35;38.93;;;26.77;;
9294;SDS011;4686;44.496;11.324;2023-03-01T07:23:03;34.73;;;25.60;;
9294;SDS011;4686;44.496;11.324;2023-03-01T07:25:30;39.00;;;25.70;;
9294;SDS011;4686;44.496;11.324;2023-03-01T07:27:57;39.13;;;29.40;;
9294;SDS011;4686;44.496;11.324;2023-03-01T07:30:25;38.17;;;28.73;;
9294;SDS011;4686;44.496;11.324;2023-03-01T07:32:55;39.27;;;29.50;;
9294;SDS011;4686;44.496;11.324;2023-03-01T07:35:22;34.40;;;25.97;;
9294;SDS011;4686;44.496;11.324;2023-03-01T07:37:49;38.53;;;28.07;;
9294;SDS011;4686;44.496;11.324;2023-03-01T07:40:17;41.30;;;28.93;;
9294;SDS011;4686;44.496;11.324;2023-03-01T07:42:44;43.27;;;31.47;;
9294;SDS011;4686;44.496;11.324;2023-03-01T07:45:12;42.70;;;30.57;;
9294;SDS011;4686;44.496;11.324;2023-03-01T07:47:39;49.93;;;36.03;;
9294;SDS011;4686;44.496;11.324;2023-03-01T07:50:09;49.13;;;36.00;;
9294;SDS011;4686;44.496;11.324;2023-03-01T07:52:36;57.20;;;34.73;;
9294;SDS011;4686;44.496;11.324;2023-03-01T07:55:04;48.13;;;35.63;;
9294;SDS011;4686;44.496;11.324;2023-03-01T07:57:31;52.50;;;34.00;;
9294;SDS011;4686;44.496;11.324;2023-03-01T07:59:58;54.80;;;37.77;;
9294;SDS011;4686;44.496;11.324;2023-03-01T08:02:26;50.03;;;34.97;;
9294;SDS011;4686;44.496;11.324;2023-03-01T08:04:54;53.43;;;35.87;;
9294;SDS011;4686;44.496;11.324;2023-03-01T08:07:22;52.10;;;37.47;;
9294;SDS011;4686;44.496;11.324;2023-03-01T08:09:50;46.87;;;34.67;;
9294;SDS011;4686;44.496;11.324;2023-03-01T08:12:17;49.40;;;35.20;;
9294;SDS011;4686;44.496;11.324;2023-03-01T08:14:44;48.80;;;35.47;;
9294;SDS011;4686;44.496;11.324;2023-03-01T08:17:13;53.93;;;36.10;;
9294;SDS011;4686;44.496;11.324;2023-03-01T08:19:40;53.53;;;37.17;;
9294;SDS011;4686;44.496;11.324;2023-03-01T08:22:07;46.00;;;32.60;;
9294;SDS011;4686;44.496;11.324;2023-03-01T08:24:36;46.83;;;34.77;;
9294;SDS011;4686;44.496;11.324;2023-03-01T08:27:03;49.53;;;36.80;;
9294;SDS011;4686;44.496;11.324;2023-03-01T08:29:31;52.00;;;36.20;;
9294;SDS011;4686;44.496;11.324;2023-03-01T08:31:58;49.43;;;34.97;;
9294;SDS011;4686;44.496;11.324;2023-03-01T08:34:26;52.23;;;36.40;;
9294;SDS011;4686;44.496;11.324;2023-03-01T08:36:53;47.03;;;34.13;;
9294;SDS011;4686;44.496;11.324;2023-03-01T08:39:20;53.70;;;36.17;;
9294;SDS011;4686;44.496;11.324;2023-03-01T08:41:49;55.63;;;35.90;;
9294;SDS011;4686;44.496;11.324;2023-03-01T08:44:16;49.83;;;36.40;;
9294;SDS011;4686;44.496;11.324;2023-03-01T08:46:44;52.23;;;36.47;;
9294;SDS011;4686;44.496;11.324;2023-03-01T08:49:13;50.30;;;34.90;;
9294;SDS011;4686;44.496;11.324;2023-03-01T08:51:41;48.60;;;34.67;;
9294;SDS011;4686;44.496;11.324;2023-03-01T08:54:09;47.40;;;33.37;;
9294;SDS011;4686;44.496;11.324;2023-03-01T08:56:38;48.23;;;34.93;;
9294;SDS011;4686;44.496;11.324;2023-03-01T08:59:06;45.00;;;33.93;;
9294;SDS011;4686;44.496;11.324;2023-03-01T09:01:34;47.93;;;32.80;;
9294;SDS011;4686;44.496;11.324;2023-03-01T09:04:02;46.10;;;35.50;;
9294;SDS011;4686;44.496;11.324;2023-03-01T09:06:30;42.93;;;31.67;;
9294;SDS011;4686;44.496;11.324;2023-03-01T09:08:58;44.70;;;32.50;;
9294;SDS011;4686;44.496;11.324;2023-03-01T09:11:27;45.17;;;31.67;;
9294;SDS011;4686;44.496;11.324;2023-03-01T09:13:55;48.83;;;33.07;;
9294;SDS011;4686;44.496;11.324;2023-03-01T09:16:23;43.60;;;31.10;;
9294;SDS011;4686;44.496;11.324;2023-03-01T09:18:53;39.93;;;29.93;;
9294;SDS011;4686;44.496;11.324;2023-03-01T09:21:23;45.27;;;31.20;;
9294;SDS011;4686;44.496;11.324;2023-03-01T09:23:50;37.13;;;29.67;;
9294;SDS011;4686;44.496;11.324;2023-03-01T09:26:18;42.33;;;28.33;;
9294;SDS011;4686;44.496;11.324;2023-03-01T09:28:46;37.97;;;28.70;;
9294;SDS011;4686;44.496;11.324;2023-03-01T09:31:14;41.00;;;31.00;;
9294;SDS011;4686;44.496;11.324;2023-03-01T09:33:44;35.13;;;28.40;;
9294;SDS011;4686;44.496;11.324;2023-03-01T09:36:13;43.77;;;28.50;;
9294;SDS011;4686;44.496;11.324;2023-03-01T09:38:40;38.63;;;27.70;;
9294;SDS011;4686;44.496;11.324;2023-03-01T09:41:09;35.57;;;28.30;;
9294;SDS011;4686;44.496;11.324;2023-03-01T09:43:39;36.90;;;26.53;;
9294;SDS011;4686;44.496;11.324;2023-03-01T09:46:10;33.23;;;26.17;;
9294;SDS011;4686;44.496;11.324;2023-03-01T09:48:40;37.73;;;26.57;;
9294;SDS011;4686;44.496;11.324;2023-03-01T09:51:12;35.57;;;26.50;;
9294;SDS011;4686;44.496;11.324;2023-03-01T09:53:43;31.77;;;26.23;;
9294;SDS011;4686;44.496;11.324;2023-03-01T09:56:12;31.87;;;25.20;;
9294;SDS011;4686;44.496;11.324;2023-03-01T09:58:41;39.10;;;26.13;;
9294;SDS011;4686;44.496;11.324;2023-03-01T10:01:23;29.50;;;24.03;;
9294;SDS011;4686;44.496;11.324;2023-03-01T10:04:00;30.90;;;25.00;;
9294;SDS011;4686;44.496;11.324;2023-03-01T10:06:30;30.07;;;24.57;;
9294;SDS011;4686;44.496;11.324;2023-03-01T10:08:58;31.40;;;24.93;;
9294;SDS011;4686;44.496;11.324;2023-03-01T10:11:28;30.70;;;24.70;;
9294;SDS011;4686;44.496;11.324;2023-03-01T10:13:58;38.37;;;26.70;;
9294;SDS011;4686;44.496;11.324;2023-03-01T10:16:28;37.83;;;25.57;;
9294;SDS011;4686;44.496;11.324;2023-03-01T10:18:59;30.50;;;23.63;;
9294;SDS011;4686;44.496;11.324;2023-03-01T10:21:27;30.83;;;24.17;;
9294;SDS011;4686;44.496;11.324;2023-03-01T10:23:58;33.27;;;26.17;;
9294;SDS011;4686;44.496;11.324;2023-03-01T10:26:38;32.23;;;24.80;;
9294;SDS011;4686;44.496;11.324;2023-03-01T10:29:07;33.20;;;24.10;;
9294;SDS011;4686;44.496;11.324;2023-03-01T10:31:37;34.60;;;24.13;;
9294;SDS011;4686;44.496;11.324;2023-03-01T10:34:08;35.90;;;25.77;;
9294;SDS011;4686;44.496;11.324;2023-03-01T10:36:35;31.37;;;23.27;;
9294;SDS011;4686;44.496;11.324;2023-03-01T10:39:05;26.47;;;22.33;;
9294;SDS011;4686;44.496;11.324;2023-03-01T10:41:37;28.60;;;22.90;;
9294;SDS011;4686;44.496;11.324;2023-03-01T10:44:12;27.90;;;22.80;;
9294;SDS011;4686;44.496;11.324;2023-03-01T10:46:59;29.90;;;23.83;;
9294;SDS011;4686;44.496;11.324;2023-03-01T10:49:27;33.07;;;24.10;;
9294;SDS011;4686;44.496;11.324;2023-03-01T10:51:54;31.10;;;24.17;;
9294;SDS011;4686;44.496;11.324;2023-03-01T10:54:25;30.70;;;24.30;;
9294;SDS011;4686;44.496;11.324;2023-03-01T10:56:54;29.73;;;22.07;;
9294;SDS011;4686;44.496;11.324;2023-03-01T10:59:25;31.13;;;23.80;;
9294;SDS011;4686;44.496;11.324;2023-03-01T11:02:03;26.80;;;22.40;;
9294;SDS011;4686;44.496;11.324;2023-03-01T11:04:31;31.50;;;23.90;;
9294;SDS011;4686;44.496;11.324;2023-03-01T11:06:59;28.93;;;22.90;;
9294;SDS011;4686;44.496;11.324;2023-03-01T11:09:30;25.30;;;21.03;;
9294;SDS011;4686;44.496;11.324;2023-03-01T11:12:04;27.87;;;22.00;;
9294;SDS011;4686;44.496;11.324;2023-03-01T11:14:33;24.73;;;21.33;;
9294;SDS011;4686;44.496;11.324;2023-03-01T11:17:02;28.60;;;22.60;;
9294;SDS011;4686;44.496;11.324;2023-03-01T11:19:29;27.17;;;21.93;;
9294;SDS011;4686;44.496;11.324;2023-03-01T11:21:58;30.73;;;22.27;;
9294;SDS011;4686;44.496;11.324;2023-03-01T11:24:30;30.40;;;23.40;;
9294;SDS011;4686;44.496;11.324;2023-03-01T11:26:59;30.70;;;23.63;;
9294;SDS011;4686;44.496;11.324;2023-03-01T11:29:30;29.53;;;22.93;;
9294;SDS011;4686;44.496;11.324;2023-03-01T11:32:01;29.90;;;23.60;;
9294;SDS011;4686;44.496;11.324;2023-03-01T11:34:35;29.63;;;22.70;;
9294;SDS011;4686;44.496;11.324;2023-03-01T11:37:07;27.57;;;20.93;;
9294;SDS011;4686;44.496;11.324;2023-03-01T11:39:39;33.93;;;22.27;;
9294;SDS011;4686;44.496;11.324;2023-03-01T11:42:10;28.40;;;22.50;;
9294;SDS011;4686;44.496;11.324;2023-03-01T11:44:39;25.20;;;21.20;;
9294;SDS011;4686;44.496;11.324;2023-03-01T11:47:12;26.10;;;21.60;;
9294;SDS011;4686;44.496;11.324;2023-03-01T11:49:50;30.03;;;22.20;;
9294;SDS011;4686;44.496;11.324;2023-03-01T11:52:24;27.20;;;23.30;;
9294;SDS011;4686;44.496;11.324;2023-03-01T11:55:01;26.90;;;22.33;;
9294;SDS011;4686;44.496;11.324;2023-03-01T11:57:37;26.83;;;21.70;;
9294;SDS011;4686;44.496;11.324;2023-03-01T12:05:49;29.60;;;22.53;;
9294;SDS011;4686;44.496;11.324;2023-03-01T12:08:20;29.63;;;23.27;;
9294;SDS011;4686;44.496;11.324;2023-03-01T12:10:52;29.23;;;22.60;;
9294;SDS011;4686;44.496;11.324;2023-03-01T12:13:27;31.23;;;23.50;;
9294;SDS011;4686;44.496;11.324;2023-03-01T12:16:09;27.17;;;22.97;;
9294;SDS011;4686;44.496;11.324;2023-03-01T12:18:45;28.13;;;21.87;;
9294;SDS011;4686;44.496;11.324;2023-03-01T12:21:18;28.93;;;22.50;;
9294;SDS011;4686;44.496;11.324;2023-03-01T12:24:02;26.70;;;21.93;;
9294;SDS011;4686;44.496;11.324;2023-03-01T12:26:31;30.70;;;23.60;;
9294;SDS011;4686;44.496;11.324;2023-03-01T12:29:07;31.00;;;22.77;;
9294;SDS011;4686;44.496;11.324;2023-03-01T12:34:43;34.47;;;23.43;;
9294;SDS011;4686;44.496;11.324;2023-03-01T12:37:21;27.87;;;22.53;;
9294;SDS011;4686;44.496;11.324;2023-03-01T12:39:57;29.23;;;23.80;;
9294;SDS011;4686;44.496;11.324;2023-03-01T12:42:33;28.80;;;22.27;;
9294;SDS011;4686;44.496;11.324;2023-03-01T12:45:20;26.40;;;20.87;;
9294;SDS011;4686;44.496;11.324;2023-03-01T12:47:53;29.20;;;23.30;;
9294;SDS011;4686;44.496;11.324;2023-03-01T12:50:24;27.50;;;22.30;;
9294;SDS011;4686;44.496;11.324;2023-03-01T12:52:53;30.67;;;23.30;;
9294;SDS011;4686;44.496;11.324;2023-03-01T12:55:25;29.30;;;23.80;;
9294;SDS011;4686;44.496;11.324;2023-03-01T12:57:57;27.83;;;22.60;;
9294;SDS011;4686;44.496;11.324;2023-03-01T13:00:30;27.20;;;22.90;;
9294;SDS011;4686;44.496;11.324;2023-03-01T13:03:00;28.43;;;22.80;;
9294;SDS011;4686;44.496;11.324;2023-03-01T13:05:34;25.70;;;21.97;;
9294;SDS011;4686;44.496;11.324;2023-03-01T13:08:05;28.67;;;22.70;;
9294;SDS011;4686;44.496;11.324;2023-03-01T13:10:39;23.20;;;20.73;;
9294;SDS011;4686;44.496;11.324;2023-03-01T13:13:18;26.40;;;21.80;;
9294;SDS011;4686;44.496;11.324;2023-03-01T13:15:48;26.13;;;22.30;;
9294;SDS011;4686;44.496;11.324;2023-03-01T13:18:27;28.70;;;22.80;;
9294;SDS011;4686;44.496;11.324;2023-03-01T13:20:56;25.87;;;22.20;;
9294;SDS011;4686;44.496;11.324;2023-03-01T13:23:28;29.00;;;23.27;;
9294;SDS011;4686;44.496;11.324;2023-03-01T13:26:04;27.43;;;21.97;;
9294;SDS011;4686;44.496;11.324;2023-03-01T13:34:02;24.63;;;21.93;;
9294;SDS011;4686;44.496;11.324;2023-03-01T13:36:48;22.70;;;20.30;;
9294;SDS011;4686;44.496;11.324;2023-03-01T13:39:29;31.53;;;22.00;;
9294;SDS011;4686;44.496;11.324;2023-03-01T13:42:00;23.63;;;20.27;;
9294;SDS011;4686;44.496;11.324;2023-03-01T13:44:30;25.00;;;21.03;;
9294;SDS011;4686;44.496;11.324;2023-03-01T13:47:00;24.50;;;20.40;;
9294;SDS011;4686;44.496;11.324;2023-03-01T13:49:35;23.00;;;20.50;;
9294;SDS011;4686;44.496;11.324;2023-03-01T13:52:27;22.20;;;19.90;;
9294;SDS011;4686;44.496;11.324;2023-03-01T13:54:56;21.43;;;19.23;;
9294;SDS011;4686;44.496;11.324;2023-03-01T13:57:26;23.03;;;20.30;;
9294;SDS011;4686;44.496;11.324;2023-03-01T13:59:55;22.43;;;19.87;;
9294;SDS011;4686;44.496;11.324;2023-03-01T14:02:22;22.23;;;19.60;;
9294;SDS011;4686;44.496;11.324;2023-03-01T14:04:57;21.90;;;19.10;;
9294;SDS011;4686;44.496;11.324;2023-03-01T14:07:24;24.03;;;20.03;;
9294;SDS011;4686;44.496;11.324;2023-03-01T14:09:54;21.27;;;18.73;;
9294;SDS011;4686;44.496;11.324;2023-03-01T14:12:25;21.93;;;18.83;;
9294;SDS011;4686;44.496;11.324;2023-03-01T14:14:54;21.70;;;19.17;;
9294;SDS011;4686;44.496;11.324;2023-03-01T14:17:33;21.70;;;19.40;;
9294;SDS011;4686;44.496;11.324;2023-03-01T14:20:07;21.20;;;19.00;;
9294;SDS011;4686;44.496;11.324;2023-03-01T14:22:35;21.67;;;19.43;;
9294;SDS011;4686;44.496;11.324;2023-03-01T14:25:05;20.50;;;18.40;;
9294;SDS011;4686;44.496;11.324;2023-03-01T14:27:35;21.07;;;18.80;;
9294;SDS011;4686;44.496;11.324;2023-03-01T14:30:09;20.40;;;18.30;;
9294;SDS011;4686;44.496;11.324;2023-03-01T14:32:38;21.30;;;19.10;;
9294;SDS011;4686;44.496;11.324;2023-03-01T14:35:18;20.40;;;18.10;;
9294;SDS011;4686;44.496;11.324;2023-03-01T14:37:45;22.93;;;19.60;;
9294;SDS011;4686;44.496;11.324;2023-03-01T14:40:20;21.33;;;18.17;;
9294;SDS011;4686;44.496;11.324;2023-03-01T14:42:48;23.97;;;19.40;;
9294;SDS011;4686;44.496;11.324;2023-03-01T14:45:16;19.40;;;17.40;;
9294;SDS011;4686;44.496;11.324;2023-03-01T14:47:45;19.97;;;17.97;;
9294;SDS011;4686;44.496;11.324;2023-03-01T14:50:18;20.70;;;18.67;;
9294;SDS011;4686;44.496;11.324;2023-03-01T14:52:47;20.83;;;18.50;;
9294;SDS011;4686;44.496;11.324;2023-03-01T14:55:15;22.10;;;19.80;;
9294;SDS011;4686;44.496;11.324;2023-03-01T14:57:43;22.23;;;19.90;;
9294;SDS011;4686;44.496;11.324;2023-03-01T15:00:14;21.70;;;19.10;;